sensor_id;sensor_type;location;lat;lon;timestamp;P1;durP1;ratioP1;P2;durP2;ratioP2
49131;SDS011;35149;51.196;6.204;2023-07-31T10:26:19;2.53;;;1.77;;
49131;SDS011;35149;51.196;6.204;2023-07-31T10:28:49;2.60;;;1.50;;
49131;SDS011;35149;51.196;6.204;2023-07-31T10:31:18;3.42;;;2.08;;
49131;SDS011;35149;51.196;6.204;2023-07-31T10:33:46;3.95;;;1.55;;
49131;SDS011;35149;51.196;6.204;2023-07-31T10:36:13;2.22;;;1.77;;
49131;SDS011;35149;51.196;6.204;2023-07-31T10:38:44;1.52;;;1.42;;
49131;SDS011;35149;51.196;6.204;2023-07-31T10:41:11;3.97;;;1.85;;
49131;SDS011;35149;51.196;6.204;2023-07-31T10:43:38;2.15;;;1.58;;
49131;SDS011;35149;51.196;6.204;2023-07-31T10:46:08;4.57;;;2.20;;
49131;SDS011;35149;51.196;6.204;2023-07-31T10:48:39;2.53;;;2.22;;
49131;SDS011;35149;51.196;6.204;2023-07-31T10:51:08;2.88;;;1.80;;
49131;SDS011;35149;51.196;6.204;2023-07-31T10:53:36;2.88;;;1.48;;
49131;SDS011;35149;51.196;6.204;2023-07-31T10:56:04;2.53;;;1.70;;
49131;SDS011;35149;51.196;6.204;2023-07-31T10:58:32;1.55;;;1.27;;
49131;SDS011;35149;51.196;6.204;2023-07-31T11:01:00;6.50;;;1.73;;
49131;SDS011;35149;51.196;6.204;2023-07-31T11:03:48;1.98;;;1.65;;
49131;SDS011;35149;51.196;6.204;2023-07-31T11:06:16;1.92;;;1.48;;
49131;SDS011;35149;51.196;6.204;2023-07-31T11:08:45;2.15;;;1.63;;
49131;SDS011;35149;51.196;6.204;2023-07-31T11:11:14;1.55;;;1.45;;
49131;SDS011;35149;51.196;6.204;2023-07-31T11:13:44;1.80;;;1.55;;
49131;SDS011;35149;51.196;6.204;2023-07-31T11:16:17;2.08;;;1.83;;
49131;SDS011;35149;51.196;6.204;2023-07-31T11:18:45;2.03;;;1.25;;
49131;SDS011;35149;51.196;6.204;2023-07-31T11:21:20;1.48;;;1.35;;
49131;SDS011;35149;51.196;6.204;2023-07-31T11:23:49;2.55;;;1.77;;
49131;SDS011;35149;51.196;6.204;2023-07-31T11:26:17;1.48;;;1.38;;
49131;SDS011;35149;51.196;6.204;2023-07-31T11:28:46;2.03;;;1.50;;
49131;SDS011;35149;51.196;6.204;2023-07-31T11:31:13;2.25;;;1.70;;
49131;SDS011;35149;51.196;6.204;2023-07-31T11:33:40;2.45;;;1.90;;
49131;SDS011;35149;51.196;6.204;2023-07-31T11:36:13;2.22;;;2.03;;
49131;SDS011;35149;51.196;6.204;2023-07-31T11:38:43;1.80;;;1.45;;
49131;SDS011;35149;51.196;6.204;2023-07-31T11:41:09;2.65;;;1.70;;
49131;SDS011;35149;51.196;6.204;2023-07-31T11:43:39;2.10;;;1.38;;
49131;SDS011;35149;51.196;6.204;2023-07-31T11:46:05;3.10;;;1.50;;
49131;SDS011;35149;51.196;6.204;2023-07-31T11:48:33;1.50;;;1.40;;
49131;SDS011;35149;51.196;6.204;2023-07-31T11:51:04;1.58;;;1.48;;
49131;SDS011;35149;51.196;6.204;2023-07-31T11:56:08;1.48;;;1.15;;
49131;SDS011;35149;51.196;6.204;2023-07-31T11:58:38;1.30;;;1.20;;
49131;SDS011;35149;51.196;6.204;2023-07-31T12:01:06;1.55;;;1.42;;
49131;SDS011;35149;51.196;6.204;2023-07-31T12:03:33;3.20;;;1.90;;
49131;SDS011;35149;51.196;6.204;2023-07-31T12:06:03;3.03;;;1.63;;
49131;SDS011;35149;51.196;6.204;2023-07-31T12:08:30;2.42;;;1.70;;
49131;SDS011;35149;51.196;6.204;2023-07-31T12:11:01;1.58;;;1.48;;
49131;SDS011;35149;51.196;6.204;2023-07-31T12:13:33;1.63;;;1.52;;
49131;SDS011;35149;51.196;6.204;2023-07-31T12:16:00;2.75;;;1.95;;
49131;SDS011;35149;51.196;6.204;2023-07-31T12:18:30;2.50;;;1.73;;
49131;SDS011;35149;51.196;6.204;2023-07-31T12:21:01;2.20;;;2.00;;
49131;SDS011;35149;51.196;6.204;2023-07-31T12:23:30;3.47;;;2.13;;
49131;SDS011;35149;51.196;6.204;2023-07-31T12:28:48;2.85;;;1.92;;
49131;SDS011;35149;51.196;6.204;2023-07-31T12:33:44;2.17;;;1.98;;
49131;SDS011;35149;51.196;6.204;2023-07-31T12:36:13;2.90;;;2.22;;
49131;SDS011;35149;51.196;6.204;2023-07-31T12:38:42;6.32;;;3.63;;
49131;SDS011;35149;51.196;6.204;2023-07-31T12:41:09;2.70;;;1.92;;
49131;SDS011;35149;51.196;6.204;2023-07-31T12:43:36;2.35;;;2.15;;
49131;SDS011;35149;51.196;6.204;2023-07-31T12:46:06;2.65;;;2.30;;
49131;SDS011;35149;51.196;6.204;2023-07-31T12:48:37;3.72;;;2.78;;
49131;SDS011;35149;51.196;6.204;2023-07-31T12:51:04;2.83;;;2.45;;
49131;SDS011;35149;51.196;6.204;2023-07-31T12:53:32;3.25;;;2.30;;
49131;SDS011;35149;51.196;6.204;2023-07-31T12:55:59;4.13;;;2.47;;
49131;SDS011;35149;51.196;6.204;2023-07-31T12:58:26;3.20;;;2.90;;
49131;SDS011;35149;51.196;6.204;2023-07-31T13:00:53;5.18;;;2.95;;
49131;SDS011;35149;51.196;6.204;2023-07-31T13:03:20;3.58;;;3.03;;
49131;SDS011;35149;51.196;6.204;2023-07-31T13:05:49;2.83;;;2.53;;
49131;SDS011;35149;51.196;6.204;2023-07-31T13:08:16;4.55;;;2.60;;
49131;SDS011;35149;51.196;6.204;2023-07-31T13:10:43;3.60;;;2.80;;
49131;SDS011;35149;51.196;6.204;2023-07-31T13:13:10;3.08;;;2.55;;
49131;SDS011;35149;51.196;6.204;2023-07-31T13:15:37;5.68;;;2.97;;
49131;SDS011;35149;51.196;6.204;2023-07-31T13:18:04;5.60;;;3.20;;
49131;SDS011;35149;51.196;6.204;2023-07-31T13:20:31;2.97;;;2.47;;
49131;SDS011;35149;51.196;6.204;2023-07-31T13:22:57;3.95;;;2.53;;
49131;SDS011;35149;51.196;6.204;2023-07-31T13:25:24;4.18;;;2.83;;
49131;SDS011;35149;51.196;6.204;2023-07-31T13:27:51;2.92;;;2.42;;
49131;SDS011;35149;51.196;6.204;2023-07-31T13:30:17;4.55;;;2.60;;
49131;SDS011;35149;51.196;6.204;2023-07-31T13:32:44;2.53;;;2.25;;
49131;SDS011;35149;51.196;6.204;2023-07-31T13:35:11;4.40;;;3.08;;
49131;SDS011;35149;51.196;6.204;2023-07-31T13:37:41;4.15;;;2.72;;
49131;SDS011;35149;51.196;6.204;2023-07-31T13:40:10;4.70;;;2.88;;
49131;SDS011;35149;51.196;6.204;2023-07-31T13:42:37;3.38;;;2.63;;
49131;SDS011;35149;51.196;6.204;2023-07-31T13:45:04;5.75;;;2.60;;
49131;SDS011;35149;51.196;6.204;2023-07-31T13:47:33;4.70;;;3.22;;
49131;SDS011;35149;51.196;6.204;2023-07-31T13:50:00;3.30;;;2.33;;
49131;SDS011;35149;51.196;6.204;2023-07-31T13:52:27;2.63;;;2.42;;
49131;SDS011;35149;51.196;6.204;2023-07-31T13:54:53;4.57;;;2.85;;
49131;SDS011;35149;51.196;6.204;2023-07-31T13:57:20;3.97;;;2.83;;
49131;SDS011;35149;51.196;6.204;2023-07-31T13:59:47;3.22;;;2.63;;
49131;SDS011;35149;51.196;6.204;2023-07-31T14:02:13;5.13;;;2.88;;
49131;SDS011;35149;51.196;6.204;2023-07-31T14:04:41;3.92;;;2.50;;
49131;SDS011;35149;51.196;6.204;2023-07-31T14:07:07;3.97;;;2.60;;
49131;SDS011;35149;51.196;6.204;2023-07-31T14:09:34;8.43;;;4.10;;
49131;SDS011;35149;51.196;6.204;2023-07-31T14:12:01;7.57;;;3.78;;
49131;SDS011;35149;51.196;6.204;2023-07-31T14:14:28;5.55;;;2.88;;
49131;SDS011;35149;51.196;6.204;2023-07-31T14:17:01;6.53;;;3.28;;
49131;SDS011;35149;51.196;6.204;2023-07-31T14:19:28;8.13;;;4.38;;
49131;SDS011;35149;51.196;6.204;2023-07-31T14:21:55;21.33;;;7.50;;
49131;SDS011;35149;51.196;6.204;2023-07-31T14:24:37;11.20;;;4.80;;
49131;SDS011;35149;51.196;6.204;2023-07-31T14:29:35;6.72;;;3.58;;
49131;SDS011;35149;51.196;6.204;2023-07-31T14:32:05;4.47;;;3.28;;
49131;SDS011;35149;51.196;6.204;2023-07-31T14:34:32;3.67;;;3.00;;
49131;SDS011;35149;51.196;6.204;2023-07-31T14:36:59;5.40;;;3.08;;
49131;SDS011;35149;51.196;6.204;2023-07-31T14:39:25;4.28;;;2.92;;
49131;SDS011;35149;51.196;6.204;2023-07-31T14:41:52;3.22;;;2.88;;
49131;SDS011;35149;51.196;6.204;2023-07-31T14:44:21;4.20;;;3.22;;
49131;SDS011;35149;51.196;6.204;2023-07-31T14:46:48;5.45;;;3.10;;
49131;SDS011;35149;51.196;6.204;2023-07-31T14:49:15;5.43;;;3.20;;
49131;SDS011;35149;51.196;6.204;2023-07-31T14:51:41;4.57;;;2.50;;
49131;SDS011;35149;51.196;6.204;2023-07-31T14:54:08;3.67;;;3.13;;
49131;SDS011;35149;51.196;6.204;2023-07-31T14:56:37;4.28;;;3.30;;
49131;SDS011;35149;51.196;6.204;2023-07-31T14:59:05;3.58;;;2.58;;
49131;SDS011;35149;51.196;6.204;2023-07-31T15:01:31;4.00;;;3.22;;
49131;SDS011;35149;51.196;6.204;2023-07-31T15:03:58;3.53;;;2.95;;
49131;SDS011;35149;51.196;6.204;2023-07-31T15:06:25;5.93;;;3.10;;
49131;SDS011;35149;51.196;6.204;2023-07-31T15:08:55;3.33;;;3.03;;
49131;SDS011;35149;51.196;6.204;2023-07-31T15:11:21;6.20;;;2.92;;
49131;SDS011;35149;51.196;6.204;2023-07-31T15:13:48;5.57;;;3.10;;
49131;SDS011;35149;51.196;6.204;2023-07-31T15:16:17;3.83;;;3.13;;
49131;SDS011;35149;51.196;6.204;2023-07-31T15:18:44;6.35;;;4.40;;
49131;SDS011;35149;51.196;6.204;2023-07-31T15:21:11;4.88;;;3.42;;
49131;SDS011;35149;51.196;6.204;2023-07-31T15:23:37;3.58;;;3.08;;
49131;SDS011;35149;51.196;6.204;2023-07-31T15:26:05;4.60;;;3.60;;
49131;SDS011;35149;51.196;6.204;2023-07-31T15:28:32;3.58;;;3.10;;
49131;SDS011;35149;51.196;6.204;2023-07-31T15:31:01;4.22;;;3.22;;
49131;SDS011;35149;51.196;6.204;2023-07-31T15:33:27;3.28;;;2.97;;
49131;SDS011;35149;51.196;6.204;2023-07-31T15:35:54;5.65;;;3.30;;
49131;SDS011;35149;51.196;6.204;2023-07-31T15:38:21;4.47;;;2.75;;
49131;SDS011;35149;51.196;6.204;2023-07-31T15:40:48;2.53;;;2.10;;
49131;SDS011;35149;51.196;6.204;2023-07-31T15:43:16;2.90;;;2.58;;
49131;SDS011;35149;51.196;6.204;2023-07-31T15:45:44;4.47;;;2.60;;
49131;SDS011;35149;51.196;6.204;2023-07-31T15:48:11;4.22;;;2.78;;
49131;SDS011;35149;51.196;6.204;2023-07-31T15:50:37;4.45;;;2.95;;
49131;SDS011;35149;51.196;6.204;2023-07-31T15:53:04;3.08;;;2.47;;
49131;SDS011;35149;51.196;6.204;2023-07-31T15:55:31;5.22;;;3.13;;
49131;SDS011;35149;51.196;6.204;2023-07-31T15:57:57;3.13;;;2.70;;
49131;SDS011;35149;51.196;6.204;2023-07-31T16:00:24;4.28;;;2.70;;
49131;SDS011;35149;51.196;6.204;2023-07-31T16:02:51;6.53;;;2.80;;
49131;SDS011;35149;51.196;6.204;2023-07-31T16:05:18;3.03;;;2.65;;
49131;SDS011;35149;51.196;6.204;2023-07-31T16:07:44;3.92;;;3.00;;
49131;SDS011;35149;51.196;6.204;2023-07-31T16:10:11;3.53;;;2.33;;
49131;SDS011;35149;51.196;6.204;2023-07-31T16:12:38;2.75;;;1.98;;
49131;SDS011;35149;51.196;6.204;2023-07-31T16:15:04;4.82;;;2.75;;
49131;SDS011;35149;51.196;6.204;2023-07-31T16:17:32;3.13;;;2.45;;
49131;SDS011;35149;51.196;6.204;2023-07-31T16:19:59;2.72;;;1.95;;
49131;SDS011;35149;51.196;6.204;2023-07-31T16:22:28;2.38;;;1.80;;
49131;SDS011;35149;51.196;6.204;2023-07-31T16:25:00;2.60;;;2.40;;
49131;SDS011;35149;51.196;6.204;2023-07-31T16:27:29;3.17;;;2.30;;
49131;SDS011;35149;51.196;6.204;2023-07-31T16:30:02;1.73;;;1.63;;
49131;SDS011;35149;51.196;6.204;2023-07-31T16:32:29;3.58;;;1.70;;
49131;SDS011;35149;51.196;6.204;2023-07-31T16:35:02;2.47;;;1.58;;
49131;SDS011;35149;51.196;6.204;2023-07-31T16:37:31;2.78;;;1.70;;
49131;SDS011;35149;51.196;6.204;2023-07-31T16:39:58;2.20;;;1.88;;
49131;SDS011;35149;51.196;6.204;2023-07-31T16:42:25;1.75;;;1.45;;
49131;SDS011;35149;51.196;6.204;2023-07-31T16:44:52;2.67;;;1.98;;
49131;SDS011;35149;51.196;6.204;2023-07-31T16:47:21;2.53;;;1.60;;
49131;SDS011;35149;51.196;6.204;2023-07-31T16:49:53;1.90;;;1.67;;
49131;SDS011;35149;51.196;6.204;2023-07-31T16:52:22;3.28;;;1.85;;
49131;SDS011;35149;51.196;6.204;2023-07-31T16:54:48;4.45;;;2.03;;
49131;SDS011;35149;51.196;6.204;2023-07-31T16:57:15;3.13;;;1.85;;
49131;SDS011;35149;51.196;6.204;2023-07-31T16:59:42;2.28;;;1.63;;
49131;SDS011;35149;51.196;6.204;2023-07-31T17:02:09;2.67;;;1.85;;
49131;SDS011;35149;51.196;6.204;2023-07-31T17:04:40;3.63;;;1.80;;
49131;SDS011;35149;51.196;6.204;2023-07-31T17:07:12;3.67;;;1.50;;
49131;SDS011;35149;51.196;6.204;2023-07-31T17:09:42;3.10;;;1.80;;
49131;SDS011;35149;51.196;6.204;2023-07-31T17:12:08;1.85;;;1.55;;
49131;SDS011;35149;51.196;6.204;2023-07-31T17:14:46;2.33;;;1.70;;
49131;SDS011;35149;51.196;6.204;2023-07-31T17:17:15;3.00;;;1.92;;
49131;SDS011;35149;51.196;6.204;2023-07-31T17:19:43;3.00;;;1.67;;
49131;SDS011;35149;51.196;6.204;2023-07-31T17:22:10;2.92;;;1.90;;
49131;SDS011;35149;51.196;6.204;2023-07-31T17:24:36;4.28;;;1.85;;
49131;SDS011;35149;51.196;6.204;2023-07-31T17:27:03;2.90;;;1.65;;
49131;SDS011;35149;51.196;6.204;2023-07-31T17:29:31;2.40;;;2.20;;
49131;SDS011;35149;51.196;6.204;2023-07-31T17:31:58;2.50;;;1.77;;
49131;SDS011;35149;51.196;6.204;2023-07-31T17:34:25;2.45;;;1.73;;
49131;SDS011;35149;51.196;6.204;2023-07-31T17:36:51;3.05;;;2.13;;
49131;SDS011;35149;51.196;6.204;2023-07-31T17:39:21;1.95;;;1.50;;
49131;SDS011;35149;51.196;6.204;2023-07-31T17:41:48;1.90;;;1.70;;
49131;SDS011;35149;51.196;6.204;2023-07-31T17:44:15;2.45;;;1.50;;
49131;SDS011;35149;51.196;6.204;2023-07-31T17:46:45;2.35;;;1.60;;
49131;SDS011;35149;51.196;6.204;2023-07-31T17:49:15;2.08;;;1.50;;
49131;SDS011;35149;51.196;6.204;2023-07-31T17:51:41;1.98;;;1.70;;
49131;SDS011;35149;51.196;6.204;2023-07-31T17:54:11;2.20;;;2.00;;
49131;SDS011;35149;51.196;6.204;2023-07-31T17:56:42;3.08;;;1.48;;
49131;SDS011;35149;51.196;6.204;2023-07-31T17:59:11;3.95;;;1.65;;
49131;SDS011;35149;51.196;6.204;2023-07-31T18:01:41;2.38;;;2.00;;
49131;SDS011;35149;51.196;6.204;2023-07-31T18:04:13;1.38;;;1.23;;
49131;SDS011;35149;51.196;6.204;2023-07-31T18:06:45;2.30;;;1.38;;
49131;SDS011;35149;51.196;6.204;2023-07-31T18:09:15;1.50;;;1.17;;
49131;SDS011;35149;51.196;6.204;2023-07-31T18:11:45;6.65;;;2.50;;
49131;SDS011;35149;51.196;6.204;2023-07-31T18:14:11;1.58;;;0.98;;
49131;SDS011;35149;51.196;6.204;2023-07-31T18:16:49;1.90;;;1.20;;
49131;SDS011;35149;51.196;6.204;2023-07-31T18:19:18;2.00;;;1.20;;
49131;SDS011;35149;51.196;6.204;2023-07-31T18:21:47;2.13;;;1.67;;
49131;SDS011;35149;51.196;6.204;2023-07-31T18:24:14;2.63;;;1.08;;
49131;SDS011;35149;51.196;6.204;2023-07-31T18:26:41;1.70;;;1.15;;
49131;SDS011;35149;51.196;6.204;2023-07-31T18:29:11;1.17;;;1.08;;
49131;SDS011;35149;51.196;6.204;2023-07-31T18:31:37;1.20;;;1.10;;
49131;SDS011;35149;51.196;6.204;2023-07-31T18:34:07;1.10;;;1.00;;
49131;SDS011;35149;51.196;6.204;2023-07-31T18:36:37;3.20;;;0.73;;
49131;SDS011;35149;51.196;6.204;2023-07-31T18:39:08;3.30;;;1.00;;
49131;SDS011;35149;51.196;6.204;2023-07-31T18:41:35;1.13;;;1.02;;
49131;SDS011;35149;51.196;6.204;2023-07-31T18:44:08;0.98;;;0.90;;
49131;SDS011;35149;51.196;6.204;2023-07-31T18:46:39;1.10;;;0.90;;
49131;SDS011;35149;51.196;6.204;2023-07-31T18:49:09;1.25;;;1.00;;
49131;SDS011;35149;51.196;6.204;2023-07-31T18:51:41;0.80;;;0.80;;
49131;SDS011;35149;51.196;6.204;2023-07-31T18:54:08;0.65;;;0.65;;
49131;SDS011;35149;51.196;6.204;2023-07-31T18:56:35;1.00;;;0.60;;
49131;SDS011;35149;51.196;6.204;2023-07-31T18:59:02;1.30;;;0.70;;
49131;SDS011;35149;51.196;6.204;2023-07-31T19:01:29;1.40;;;0.80;;
49131;SDS011;35149;51.196;6.204;2023-07-31T19:03:58;1.38;;;0.68;;
49131;SDS011;35149;51.196;6.204;2023-07-31T19:06:25;1.90;;;1.13;;
49131;SDS011;35149;51.196;6.204;2023-07-31T19:08:52;0.65;;;0.63;;
49131;SDS011;35149;51.196;6.204;2023-07-31T19:11:31;0.73;;;0.52;;
49131;SDS011;35149;51.196;6.204;2023-07-31T19:13:58;1.45;;;1.00;;
49131;SDS011;35149;51.196;6.204;2023-07-31T19:16:25;1.38;;;0.60;;
49131;SDS011;35149;51.196;6.204;2023-07-31T19:18:52;1.00;;;0.77;;
49131;SDS011;35149;51.196;6.204;2023-07-31T19:21:20;1.05;;;0.70;;
49131;SDS011;35149;51.196;6.204;2023-07-31T19:23:49;0.75;;;0.68;;
49131;SDS011;35149;51.196;6.204;2023-07-31T19:26:17;1.10;;;0.70;;
49131;SDS011;35149;51.196;6.204;2023-07-31T19:28:44;0.95;;;0.70;;
49131;SDS011;35149;51.196;6.204;2023-07-31T19:31:18;0.50;;;0.50;;
49131;SDS011;35149;51.196;6.204;2023-07-31T19:33:47;0.93;;;0.80;;
49131;SDS011;35149;51.196;6.204;2023-07-31T19:36:21;0.60;;;0.60;;
49131;SDS011;35149;51.196;6.204;2023-07-31T19:38:48;1.38;;;0.55;;
49131;SDS011;35149;51.196;6.204;2023-07-31T19:41:15;0.50;;;0.50;;
49131;SDS011;35149;51.196;6.204;2023-07-31T19:43:52;0.80;;;0.75;;
49131;SDS011;35149;51.196;6.204;2023-07-31T19:46:21;0.52;;;0.52;;
49131;SDS011;35149;51.196;6.204;2023-07-31T19:48:51;2.80;;;0.70;;
49131;SDS011;35149;51.196;6.204;2023-07-31T19:51:19;1.05;;;0.65;;
49131;SDS011;35149;51.196;6.204;2023-07-31T19:53:46;0.80;;;0.60;;
49131;SDS011;35149;51.196;6.204;2023-07-31T19:56:13;0.80;;;0.50;;
49131;SDS011;35149;51.196;6.204;2023-07-31T19:58:42;1.48;;;0.80;;
49131;SDS011;35149;51.196;6.204;2023-07-31T20:01:09;1.17;;;0.70;;
49131;SDS011;35149;51.196;6.204;2023-07-31T20:03:36;0.70;;;0.50;;
49131;SDS011;35149;51.196;6.204;2023-07-31T20:06:03;0.60;;;0.60;;
49131;SDS011;35149;51.196;6.204;2023-07-31T20:08:32;1.70;;;1.25;;
49131;SDS011;35149;51.196;6.204;2023-07-31T20:11:03;0.45;;;0.45;;
49131;SDS011;35149;51.196;6.204;2023-07-31T20:13:30;1.50;;;0.63;;
49131;SDS011;35149;51.196;6.204;2023-07-31T20:15:59;0.73;;;0.50;;
49131;SDS011;35149;51.196;6.204;2023-07-31T20:18:28;0.65;;;0.65;;
49131;SDS011;35149;51.196;6.204;2023-07-31T20:20:58;1.23;;;0.80;;
49131;SDS011;35149;51.196;6.204;2023-07-31T20:23:24;2.38;;;0.70;;
49131;SDS011;35149;51.196;6.204;2023-07-31T20:26:11;0.70;;;0.50;;
49131;SDS011;35149;51.196;6.204;2023-07-31T20:28:38;0.63;;;0.40;;
49131;SDS011;35149;51.196;6.204;2023-07-31T20:31:07;0.50;;;0.50;;
49131;SDS011;35149;51.196;6.204;2023-07-31T20:33:33;2.35;;;0.70;;
49131;SDS011;35149;51.196;6.204;2023-07-31T20:36:02;0.70;;;0.70;;
49131;SDS011;35149;51.196;6.204;2023-07-31T20:38:31;0.55;;;0.55;;
49131;SDS011;35149;51.196;6.204;2023-07-31T20:41:00;0.65;;;0.50;;
49131;SDS011;35149;51.196;6.204;2023-07-31T20:43:32;1.45;;;0.45;;
49131;SDS011;35149;51.196;6.204;2023-07-31T20:45:58;0.70;;;0.68;;
49131;SDS011;35149;51.196;6.204;2023-07-31T20:48:25;0.77;;;0.57;;
49131;SDS011;35149;51.196;6.204;2023-07-31T20:50:52;0.65;;;0.50;;
49131;SDS011;35149;51.196;6.204;2023-07-31T20:53:19;0.60;;;0.60;;
49131;SDS011;35149;51.196;6.204;2023-07-31T20:55:49;1.05;;;0.80;;
49131;SDS011;35149;51.196;6.204;2023-07-31T20:58:16;0.60;;;0.50;;
49131;SDS011;35149;51.196;6.204;2023-07-31T21:00:43;0.90;;;0.60;;
49131;SDS011;35149;51.196;6.204;2023-07-31T21:03:10;0.80;;;0.50;;
49131;SDS011;35149;51.196;6.204;2023-07-31T21:05:47;3.05;;;0.50;;
49131;SDS011;35149;51.196;6.204;2023-07-31T21:08:19;0.65;;;0.57;;
49131;SDS011;35149;51.196;6.204;2023-07-31T21:10:53;0.93;;;0.52;;
49131;SDS011;35149;51.196;6.204;2023-07-31T21:13:20;1.52;;;0.43;;
49131;SDS011;35149;51.196;6.204;2023-07-31T21:15:46;0.57;;;0.57;;
49131;SDS011;35149;51.196;6.204;2023-07-31T21:18:13;0.90;;;0.60;;
49131;SDS011;35149;51.196;6.204;2023-07-31T21:20:45;2.22;;;0.60;;
49131;SDS011;35149;51.196;6.204;2023-07-31T21:23:20;0.57;;;0.47;;
49131;SDS011;35149;51.196;6.204;2023-07-31T21:25:46;1.50;;;0.77;;
49131;SDS011;35149;51.196;6.204;2023-07-31T21:28:14;1.17;;;0.55;;
49131;SDS011;35149;51.196;6.204;2023-07-31T21:30:43;0.50;;;0.43;;
49131;SDS011;35149;51.196;6.204;2023-07-31T21:33:10;0.52;;;0.50;;
49131;SDS011;35149;51.196;6.204;2023-07-31T21:35:37;1.20;;;0.43;;
49131;SDS011;35149;51.196;6.204;2023-07-31T21:38:06;0.50;;;0.50;;
49131;SDS011;35149;51.196;6.204;2023-07-31T21:40:36;0.85;;;0.65;;
49131;SDS011;35149;51.196;6.204;2023-07-31T21:43:02;0.75;;;0.50;;
49131;SDS011;35149;51.196;6.204;2023-07-31T21:45:29;0.30;;;0.30;;
49131;SDS011;35149;51.196;6.204;2023-07-31T21:47:56;0.93;;;0.50;;
49131;SDS011;35149;51.196;6.204;2023-07-31T21:50:22;0.98;;;0.60;;
49131;SDS011;35149;51.196;6.204;2023-07-31T21:52:49;0.70;;;0.70;;
49131;SDS011;35149;51.196;6.204;2023-07-31T21:55:18;0.60;;;0.60;;
49131;SDS011;35149;51.196;6.204;2023-07-31T21:57:49;2.78;;;0.68;;
49131;SDS011;35149;51.196;6.204;2023-07-31T22:00:16;0.63;;;0.63;;
49131;SDS011;35149;51.196;6.204;2023-07-31T22:02:47;0.75;;;0.40;;
49131;SDS011;35149;51.196;6.204;2023-07-31T22:05:14;0.60;;;0.40;;
49131;SDS011;35149;51.196;6.204;2023-07-31T22:07:41;0.93;;;0.60;;
49131;SDS011;35149;51.196;6.204;2023-07-31T22:10:13;1.48;;;0.55;;
49131;SDS011;35149;51.196;6.204;2023-07-31T22:12:41;0.75;;;0.40;;
49131;SDS011;35149;51.196;6.204;2023-07-31T22:15:10;1.75;;;0.60;;
49131;SDS011;35149;51.196;6.204;2023-07-31T22:17:42;0.82;;;0.60;;
49131;SDS011;35149;51.196;6.204;2023-07-31T22:20:11;0.60;;;0.60;;
49131;SDS011;35149;51.196;6.204;2023-07-31T22:22:38;2.42;;;0.50;;
49131;SDS011;35149;51.196;6.204;2023-07-31T22:25:04;1.02;;;0.40;;
49131;SDS011;35149;51.196;6.204;2023-07-31T22:27:33;0.65;;;0.20;;
49131;SDS011;35149;51.196;6.204;2023-07-31T22:30:05;0.50;;;0.30;;
49131;SDS011;35149;51.196;6.204;2023-07-31T22:32:32;0.40;;;0.40;;
49131;SDS011;35149;51.196;6.204;2023-07-31T22:35:01;0.63;;;0.60;;
49131;SDS011;35149;51.196;6.204;2023-07-31T22:37:31;0.20;;;0.20;;
49131;SDS011;35149;51.196;6.204;2023-07-31T22:40:03;0.45;;;0.43;;
49131;SDS011;35149;51.196;6.204;2023-07-31T22:42:36;0.45;;;0.30;;
49131;SDS011;35149;51.196;6.204;2023-07-31T22:45:07;0.50;;;0.50;;
49131;SDS011;35149;51.196;6.204;2023-07-31T22:47:39;0.43;;;0.13;;
49131;SDS011;35149;51.196;6.204;2023-07-31T22:50:07;0.40;;;0.40;;
49131;SDS011;35149;51.196;6.204;2023-07-31T22:52:37;0.13;;;0.13;;
49131;SDS011;35149;51.196;6.204;2023-07-31T22:55:05;0.57;;;0.20;;
49131;SDS011;35149;51.196;6.204;2023-07-31T22:57:31;0.73;;;0.20;;
49131;SDS011;35149;51.196;6.204;2023-07-31T22:59:58;1.83;;;0.40;;
49131;SDS011;35149;51.196;6.204;2023-07-31T23:02:27;0.35;;;0.17;;
49131;SDS011;35149;51.196;6.204;2023-07-31T23:04:58;0.50;;;0.20;;
49131;SDS011;35149;51.196;6.204;2023-07-31T23:07:32;2.63;;;0.65;;
49131;SDS011;35149;51.196;6.204;2023-07-31T23:10:04;1.58;;;0.20;;
49131;SDS011;35149;51.196;6.204;2023-07-31T23:12:33;0.38;;;0.30;;
49131;SDS011;35149;51.196;6.204;2023-07-31T23:15:02;0.45;;;0.28;;
49131;SDS011;35149;51.196;6.204;2023-07-31T23:17:31;0.20;;;0.20;;
49131;SDS011;35149;51.196;6.204;2023-07-31T23:20:01;1.10;;;0.17;;
49131;SDS011;35149;51.196;6.204;2023-07-31T23:22:29;0.73;;;0.20;;
49131;SDS011;35149;51.196;6.204;2023-07-31T23:25:04;2.22;;;0.50;;
49131;SDS011;35149;51.196;6.204;2023-07-31T23:27:31;0.20;;;0.20;;
49131;SDS011;35149;51.196;6.204;2023-07-31T23:29:58;1.00;;;0.17;;
49131;SDS011;35149;51.196;6.204;2023-07-31T23:32:24;0.22;;;0.13;;
49131;SDS011;35149;51.196;6.204;2023-07-31T23:34:51;1.10;;;0.47;;
49131;SDS011;35149;51.196;6.204;2023-07-31T23:37:18;1.77;;;0.22;;
49131;SDS011;35149;51.196;6.204;2023-07-31T23:39:49;0.35;;;0.20;;
49131;SDS011;35149;51.196;6.204;2023-07-31T23:42:16;0.70;;;0.40;;
49131;SDS011;35149;51.196;6.204;2023-07-31T23:44:45;0.50;;;0.30;;
49131;SDS011;35149;51.196;6.204;2023-07-31T23:47:32;0.88;;;0.50;;
49131;SDS011;35149;51.196;6.204;2023-07-31T23:50:06;1.20;;;0.40;;
49131;SDS011;35149;51.196;6.204;2023-07-31T23:52:36;0.30;;;0.30;;
49131;SDS011;35149;51.196;6.204;2023-07-31T23:55:03;0.35;;;0.35;;
49131;SDS011;35149;51.196;6.204;2023-07-31T23:57:34;0.20;;;0.20;;
